KLMT/LMT METAR and TAF weather

Enter ICAO airport designator
Station Type Date Time Source
KLMT METAR 2020/04/05 22:53 UTC NOAA

KLMT 052253Z AUTO 17008KT 10SM SCT080 OVC090 06/02 A2952 RMK AO2 SLP991 T00610017


Station Type Date Time Source
KLMT Decoded METAR 2020/04/05 22:53 UTC NOAA

KLAMATH FALLS INTERNATIONAL AIRPORT, OR, United States (KLMT) 42-09N 121-43W 1246M
Apr 05, 2020 - 06:53 PM EDT / 2020.04.05 2253 UTC
Wind: from the S (170 degrees) at 9 MPH (8 KT):0
Visibility: 10 mile(s):0
Sky conditions: overcast
Temperature: 43.0 F (6.1 C)
Dew Point: 35.1 F (1.7 C)
Relative Humidity: 73%
Pressure (altimeter): 29.52 in. Hg (999 hPa)
ob: KLMT 052253Z AUTO 17008KT 10SM SCT080 OVC090 06/02 A2952 RMK AO2 SLP991 T00610017
cycle: 23

Station Type Date Time Source
KLMT TAF 2020/04/05 20:18 UTC NOAA

TAF
AMD KLMT 052017Z 0520/0618 15019G28KT P6SM SCT030 BKN040 OVC060
TEMPO 0521/0523 5SM -SHRA BKN025 OVC040
FM060200 15006KT P6SM VCSH SCT025 OVC050
FM060900 VRB02KT 5SM BR SCT005 BKN020
FM061500 VRB02KT P6SM FEW006 SCT020 BKN150

Example: see airport list